Time;durP1;ratioP1;P1;durP2;ratioP2;P2;SDS_P1;SDS_P2;PMS_P1;PMS_P2;Temp;Humidity;BMP_temperature;BMP_pressure;BME280_temperature;BME280_humidity;BME280_pressure;Samples;Min_cycle;Max_cycle;Signal;HPM_P1;HPM_P2
2022/11/27 00:00:16;;;;;;;9.13;3.38;;;;;;;;;;5013853;28;20034;-76
2022/11/27 00:02:41;;;;;;;9.05;2.92;;;;;;;;;;5013550;28;20121;-76
2022/11/27 00:05:07;;;;;;;6.53;2.97;;;;;;;;;;5029989;28;20136;-76
2022/11/27 00:07:33;;;;;;;9.20;3.00;;;;;;;;;;5013649;28;20038;-76
2022/11/27 00:09:58;;;;;;;6.63;3.22;;;;;;;;;;5013253;28;20041;-75
2022/11/27 00:12:23;;;;;;;6.78;3.05;;;;;;;;;;5014650;28;20036;-76
2022/11/27 00:14:48;;;;;;;7.10;2.85;;;;;;;;;;5013530;28;20072;-75
2022/11/27 00:17:14;;;;;;;10.40;3.10;;;;;;;;;;5029793;28;20041;-75
2022/11/27 00:19:39;;;;;;;6.40;2.80;;;;;;;;;;5013348;28;20415;-75
2022/11/27 00:22:05;;;;;;;10.63;2.95;;;;;;;;;;5013499;28;20030;-76
2022/11/27 00:24:30;;;;;;;6.47;2.85;;;;;;;;;;5029638;28;20049;-75
2022/11/27 00:26:56;;;;;;;7.38;3.08;;;;;;;;;;5013165;28;20033;-75
2022/11/27 00:29:21;;;;;;;10.18;3.30;;;;;;;;;;5014257;28;20071;-75
2022/11/27 00:31:46;;;;;;;8.05;3.53;;;;;;;;;;5014277;28;20029;-76
2022/11/27 00:34:12;;;;;;;5.20;2.88;;;;;;;;;;5013777;28;20045;-75
2022/11/27 00:36:38;;;;;;;7.03;2.63;;;;;;;;;;5013188;28;20052;-75
2022/11/27 00:39:04;;;;;;;6.43;2.72;;;;;;;;;;5014223;28;20087;-76
2022/11/27 00:41:29;;;;;;;5.32;2.53;;;;;;;;;;5013238;28;20026;-76
2022/11/27 00:43:55;;;;;;;7.25;2.75;;;;;;;;;;5012645;28;20507;-77
2022/11/27 00:46:23;;;;;;;6.32;2.60;;;;;;;;;;5012736;28;20084;-77
2022/11/27 00:48:49;;;;;;;5.20;2.83;;;;;;;;;;5013281;28;20121;-76
2022/11/27 00:51:17;;;;;;;8.20;3.22;;;;;;;;;;5013951;28;20393;-76
2022/11/27 00:53:43;;;;;;;6.05;2.70;;;;;;;;;;5012655;28;20049;-76
2022/11/27 00:56:13;;;;;;;8.23;2.83;;;;;;;;;;5012708;28;20026;-76
2022/11/27 00:58:38;;;;;;;10.23;2.83;;;;;;;;;;5012203;28;20030;-76
2022/11/27 01:01:06;;;;;;;8.70;2.97;;;;;;;;;;5029108;28;20095;-75
2022/11/27 01:03:32;;;;;;;9.68;2.58;;;;;;;;;;5012427;28;20025;-74
2022/11/27 01:06:02;;;;;;;6.93;2.78;;;;;;;;;;5012647;28;20041;-76
2022/11/27 01:08:27;;;;;;;6.57;2.55;;;;;;;;;;5012217;28;20389;-76
2022/11/27 01:10:56;;;;;;;4.97;2.63;;;;;;;;;;5012723;28;20038;-76
2022/11/27 01:13:23;;;;;;;10.60;3.03;;;;;;;;;;5012735;28;20445;-76
2022/11/27 01:16:10;;;;;;;7.88;2.88;;;;;;;;;;5012366;28;20052;-76
2022/11/27 01:18:37;;;;;;;5.95;2.47;;;;;;;;;;5012205;28;20119;-76
2022/11/27 01:21:03;;;;;;;8.93;2.60;;;;;;;;;;4995876;28;20034;-76
2022/11/27 01:23:29;;;;;;;7.07;2.78;;;;;;;;;;5012245;28;20049;-76
2022/11/27 01:25:55;;;;;;;5.60;2.50;;;;;;;;;;5012273;28;20042;-76
2022/11/27 01:28:23;;;;;;;8.00;3.30;;;;;;;;;;5012008;28;20030;-76
2022/11/27 01:30:49;;;;;;;5.20;2.42;;;;;;;;;;5028628;28;20049;-76
2022/11/27 01:33:15;;;;;;;10.15;2.88;;;;;;;;;;5028634;28;20113;-76
2022/11/27 01:35:40;;;;;;;10.07;2.78;;;;;;;;;;5012443;28;20512;-76
2022/11/27 01:38:05;;;;;;;6.25;2.47;;;;;;;;;;5012511;28;20493;-76
2022/11/27 01:40:31;;;;;;;6.68;2.25;;;;;;;;;;5012373;28;20100;-76
2022/11/27 01:42:56;;;;;;;5.30;2.67;;;;;;;;;;5012809;28;20045;-76
2022/11/27 01:45:22;;;;;;;8.38;2.15;;;;;;;;;;5013909;28;20485;-76
2022/11/27 01:47:54;;;;;;;9.30;2.72;;;;;;;;;;5012102;28;20030;-76
2022/11/27 01:50:27;;;;;;;7.88;2.47;;;;;;;;;;5012255;28;20037;-75
2022/11/27 01:52:56;;;;;;;5.23;2.37;;;;;;;;;;5012048;28;20033;-76
2022/11/27 01:55:35;;;;;;;4.53;2.40;;;;;;;;;;5012161;28;20255;-76
2022/11/27 01:58:05;;;;;;;7.72;2.50;;;;;;;;;;5011921;28;20108;-76
2022/11/27 02:00:30;;;;;;;6.88;2.80;;;;;;;;;;5011928;28;20083;-76
2022/11/27 02:02:56;;;;;;;6.10;2.40;;;;;;;;;;5028280;28;20046;-76
2022/11/27 02:05:27;;;;;;;5.75;2.53;;;;;;;;;;5028461;28;20040;-76
2022/11/27 02:07:53;;;;;;;8.13;2.40;;;;;;;;;;5012133;28;20022;-75
2022/11/27 02:10:19;;;;;;;5.95;2.45;;;;;;;;;;5013010;28;20037;-75
2022/11/27 02:12:58;;;;;;;4.55;2.50;;;;;;;;;;5016008;28;20105;-75
2022/11/27 02:15:32;;;;;;;4.95;2.20;;;;;;;;;;5015933;28;20388;-75
2022/11/27 02:18:04;;;;;;;6.03;2.38;;;;;;;;;;5015557;28;20365;-75
2022/11/27 02:20:49;;;;;;;5.35;2.25;;;;;;;;;;5015328;28;20032;-76
2022/11/27 02:23:29;;;;;;;7.60;2.65;;;;;;;;;;5015251;28;20025;-76
2022/11/27 02:26:06;;;;;;;4.78;2.30;;;;;;;;;;5015204;28;20061;-76
2022/11/27 02:28:59;;;;;;;8.75;2.20;;;;;;;;;;5031518;28;20029;-76
2022/11/27 02:31:30;;;;;;;10.65;2.35;;;;;;;;;;5015124;28;20121;-76
2022/11/27 02:34:01;;;;;;;7.28;2.60;;;;;;;;;;5015040;28;20084;-76
2022/11/27 02:36:29;;;;;;;7.32;2.53;;;;;;;;;;5014943;28;20080;-76
2022/11/27 02:39:08;;;;;;;6.30;2.65;;;;;;;;;;5015059;28;20053;-75
2022/11/27 02:41:41;;;;;;;5.82;2.50;;;;;;;;;;5014864;28;20026;-75
2022/11/27 02:44:08;;;;;;;8.50;2.65;;;;;;;;;;5015037;28;20032;-75
2022/11/27 02:46:33;;;;;;;7.50;2.58;;;;;;;;;;5031264;28;20033;-75
2022/11/27 02:49:08;;;;;;;4.35;1.98;;;;;;;;;;5015093;28;20030;-75
2022/11/27 02:51:41;;;;;;;7.70;2.50;;;;;;;;;;5014559;28;20061;-76
2022/11/27 02:54:11;;;;;;;5.57;2.35;;;;;;;;;;5014797;28;20040;-75
2022/11/27 02:56:38;;;;;;;4.43;2.20;;;;;;;;;;5014652;28;20061;-75
2022/11/27 02:59:08;;;;;;;5.20;2.50;;;;;;;;;;5014758;28;20022;-75
2022/11/27 03:01:38;;;;;;;5.78;2.20;;;;;;;;;;5014542;28;20044;-75
2022/11/27 03:04:08;;;;;;;4.10;2.10;;;;;;;;;;5014725;28;20052;-76
2022/11/27 03:06:39;;;;;;;5.38;2.20;;;;;;;;;;5014478;28;20030;-76
2022/11/27 03:09:08;;;;;;;3.15;2.28;;;;;;;;;;5014672;28;20032;-76
2022/11/27 03:11:34;;;;;;;3.67;2.10;;;;;;;;;;5014447;28;20021;-76
2022/11/27 03:14:03;;;;;;;5.70;2.28;;;;;;;;;;5014656;28;20049;-76
2022/11/27 03:17:10;;;;;;;8.32;2.80;;;;;;;;;;5014360;28;20026;-76
2022/11/27 03:19:42;;;;;;;4.15;2.10;;;;;;;;;;5001673;28;20113;-76
2022/11/27 03:22:08;;;;;;;4.68;2.20;;;;;;;;;;5013891;28;20423;-76
2022/11/27 03:24:34;;;;;;;5.97;2.40;;;;;;;;;;5014316;28;20026;-76
2022/11/27 03:27:00;;;;;;;5.10;2.40;;;;;;;;;;5014301;28;20022;-76
2022/11/27 03:29:34;;;;;;;3.30;2.47;;;;;;;;;;5014139;28;20033;-76
2022/11/27 03:32:00;;;;;;;5.90;2.50;;;;;;;;;;5014459;28;20032;-75
2022/11/27 03:34:27;;;;;;;5.00;2.45;;;;;;;;;;5013951;28;20184;-76
2022/11/27 03:36:53;;;;;;;5.60;2.10;;;;;;;;;;5014674;28;20018;-76
2022/11/27 03:39:19;;;;;;;8.00;2.35;;;;;;;;;;5029112;28;20024;-75
2022/11/27 03:41:53;;;;;;;6.57;2.30;;;;;;;;;;5015386;28;20029;-75
2022/11/27 03:44:33;;;;;;;5.40;2.53;;;;;;;;;;5013834;28;20077;-76
2022/11/27 03:47:09;;;;;;;5.55;2.45;;;;;;;;;;5015095;28;20480;-76
2022/11/27 03:49:47;;;;;;;5.07;2.20;;;;;;;;;;5014208;28;20033;-76
2022/11/27 03:52:20;;;;;;;5.10;2.50;;;;;;;;;;5015500;28;20488;-76
2022/11/27 03:54:59;;;;;;;5.25;2.55;;;;;;;;;;5030228;28;20033;-75
2022/11/27 03:57:33;;;;;;;6.38;2.22;;;;;;;;;;5014976;28;20040;-75
2022/11/27 04:00:02;;;;;;;3.10;2.22;;;;;;;;;;5014876;28;20033;-75
2022/11/27 04:02:31;;;;;;;3.92;2.22;;;;;;;;;;5013878;28;20447;-75
2022/11/27 04:04:56;;;;;;;3.75;2.00;;;;;;;;;;5013572;28;20124;-75
2022/11/27 04:07:22;;;;;;;8.40;1.92;;;;;;;;;;5013972;28;20112;-75
2022/11/27 04:09:47;;;;;;;5.90;2.30;;;;;;;;;;5013282;28;20036;-75
2022/11/27 04:12:12;;;;;;;3.90;2.08;;;;;;;;;;5013424;28;20341;-75
2022/11/27 04:14:38;;;;;;;5.45;2.60;;;;;;;;;;5013558;28;20065;-75
2022/11/27 04:17:03;;;;;;;5.57;2.30;;;;;;;;;;4997214;28;20080;-75
2022/11/27 04:19:29;;;;;;;4.03;2.08;;;;;;;;;;5013858;28;20492;-76
2022/11/27 04:21:54;;;;;;;7.20;2.85;;;;;;;;;;5013188;28;20040;-75
2022/11/27 04:24:19;;;;;;;4.18;2.05;;;;;;;;;;5014354;28;20033;-75
2022/11/27 04:26:45;;;;;;;5.10;2.15;;;;;;;;;;5013081;28;20429;-76
2022/11/27 04:29:10;;;;;;;4.47;2.25;;;;;;;;;;5014498;28;20061;-76
2022/11/27 04:31:35;;;;;;;4.18;2.05;;;;;;;;;;5013030;28;20042;-76
2022/11/27 04:34:01;;;;;;;8.18;2.53;;;;;;;;;;5012280;28;20033;-76
2022/11/27 04:36:26;;;;;;;6.03;2.20;;;;;;;;;;5014369;28;20034;-75
2022/11/27 04:38:51;;;;;;;3.85;1.83;;;;;;;;;;5013378;28;20393;-76
2022/11/27 04:41:17;;;;;;;5.70;1.95;;;;;;;;;;5014056;28;20393;-76
2022/11/27 04:43:42;;;;;;;6.15;2.00;;;;;;;;;;5029530;28;20041;-75
2022/11/27 04:46:07;;;;;;;4.70;2.22;;;;;;;;;;5012585;28;20058;-76
2022/11/27 04:48:33;;;;;;;3.83;2.28;;;;;;;;;;5014042;28;20077;-75
2022/11/27 04:50:58;;;;;;;4.43;2.08;;;;;;;;;;5012673;28;20029;-76
2022/11/27 04:53:23;;;;;;;4.78;2.22;;;;;;;;;;5028985;28;20037;-76
2022/11/27 04:55:51;;;;;;;5.95;2.25;;;;;;;;;;5012864;28;20060;-76
2022/11/27 04:58:16;;;;;;;4.45;2.30;;;;;;;;;;5012645;28;20030;-76
2022/11/27 05:00:41;;;;;;;4.72;2.22;;;;;;;;;;5012891;28;20095;-77
2022/11/27 05:03:07;;;;;;;4.55;2.03;;;;;;;;;;5013008;28;20030;-76
2022/11/27 05:05:32;;;;;;;5.80;2.30;;;;;;;;;;5012696;28;20083;-76
2022/11/27 05:07:58;;;;;;;3.85;1.88;;;;;;;;;;5029337;28;20072;-77
2022/11/27 05:10:23;;;;;;;3.40;1.90;;;;;;;;;;5014048;28;20026;-76
2022/11/27 05:12:48;;;;;;;4.63;2.03;;;;;;;;;;5014140;28;20103;-76
2022/11/27 05:15:14;;;;;;;5.05;2.05;;;;;;;;;;5014046;28;20038;-76
2022/11/27 05:17:39;;;;;;;5.05;1.92;;;;;;;;;;5012885;28;20091;-76
2022/11/27 05:20:05;;;;;;;5.97;2.03;;;;;;;;;;5012808;28;20022;-76
2022/11/27 05:22:31;;;;;;;3.85;1.88;;;;;;;;;;5013892;28;20041;-76
2022/11/27 05:24:56;;;;;;;8.98;2.08;;;;;;;;;;5012609;28;20038;-77
2022/11/27 05:27:21;;;;;;;5.32;2.10;;;;;;;;;;5013867;28;20026;-76
2022/11/27 05:29:47;;;;;;;6.38;1.80;;;;;;;;;;5012301;28;20030;-76
2022/11/27 05:32:12;;;;;;;3.33;1.67;;;;;;;;;;5012485;28;20040;-76
2022/11/27 05:34:37;;;;;;;2.67;1.80;;;;;;;;;;5012726;28;20543;-76
2022/11/27 05:37:03;;;;;;;8.30;2.25;;;;;;;;;;5014419;28;20033;-76
2022/11/27 05:39:28;;;;;;;3.13;1.63;;;;;;;;;;5012768;28;20058;-77
2022/11/27 05:41:53;;;;;;;6.03;1.83;;;;;;;;;;4995911;28;20045;-76
2022/11/27 05:44:19;;;;;;;4.95;1.90;;;;;;;;;;5013892;28;20033;-77
2022/11/27 05:46:44;;;;;;;6.32;2.03;;;;;;;;;;5018087;28;20030;-76
2022/11/27 05:49:14;;;;;;;13.60;2.00;;;;;;;;;;5032784;28;20041;-77
2022/11/27 05:51:40;;;;;;;5.72;1.70;;;;;;;;;;5016548;28;20053;-76
2022/11/27 05:54:06;;;;;;;4.13;1.95;;;;;;;;;;5016145;28;20036;-76
2022/11/27 05:56:31;;;;;;;3.72;2.00;;;;;;;;;;4999564;28;20384;-76
2022/11/27 05:58:57;;;;;;;4.10;1.65;;;;;;;;;;5016863;28;20029;-76
2022/11/27 06:01:22;;;;;;;6.13;1.70;;;;;;;;;;5015997;28;20030;-77
2022/11/27 06:03:48;;;;;;;3.67;1.80;;;;;;;;;;5016104;28;20384;-77
2022/11/27 06:06:16;;;;;;;3.53;1.67;;;;;;;;;;5032350;28;20040;-75
2022/11/27 06:08:41;;;;;;;6.75;2.10;;;;;;;;;;5015790;28;20391;-77
2022/11/27 06:11:08;;;;;;;4.20;1.77;;;;;;;;;;5015830;28;20033;-77
2022/11/27 06:13:33;;;;;;;3.08;1.80;;;;;;;;;;5015827;28;20029;-74
2022/11/27 06:16:06;;;;;;;4.00;1.65;;;;;;;;;;5017140;28;20040;-74
2022/11/27 06:18:32;;;;;;;2.90;1.52;;;;;;;;;;5015789;28;20075;-77
2022/11/27 06:20:57;;;;;;;7.57;1.80;;;;;;;;;;5016817;28;20038;-77
2022/11/27 06:23:22;;;;;;;3.45;1.90;;;;;;;;;;5015492;28;20370;-77
2022/11/27 06:25:48;;;;;;;4.13;1.60;;;;;;;;;;5015574;28;20034;-77
2022/11/27 06:28:13;;;;;;;4.30;1.90;;;;;;;;;;5015432;28;20452;-76
2022/11/27 06:30:38;;;;;;;3.05;1.67;;;;;;;;;;5016596;28;20037;-76
2022/11/27 06:33:04;;;;;;;6.60;1.70;;;;;;;;;;5011111;28;20037;-76
2022/11/27 06:35:29;;;;;;;3.70;1.63;;;;;;;;;;5010857;28;20106;-75
2022/11/27 06:37:56;;;;;;;4.95;1.70;;;;;;;;;;5009541;28;20103;-76
2022/11/27 06:40:21;;;;;;;5.45;1.80;;;;;;;;;;5026522;28;20034;-76
2022/11/27 06:42:46;;;;;;;4.65;1.77;;;;;;;;;;5011481;28;20037;-75
2022/11/27 06:45:12;;;;;;;5.65;1.80;;;;;;;;;;5015175;28;20085;-76
2022/11/27 06:47:38;;;;;;;10.82;1.85;;;;;;;;;;5015122;28;20042;-76
2022/11/27 06:50:04;;;;;;;5.90;2.00;;;;;;;;;;5016721;28;20037;-76
2022/11/27 06:52:29;;;;;;;4.13;1.88;;;;;;;;;;5015177;28;20030;-75
2022/11/27 06:54:54;;;;;;;4.30;1.58;;;;;;;;;;5014876;28;20052;-76
2022/11/27 06:57:20;;;;;;;3.28;1.52;;;;;;;;;;5013796;28;20397;-77
2022/11/27 06:59:45;;;;;;;4.93;1.50;;;;;;;;;;5014720;28;20022;-75
2022/11/27 07:02:13;;;;;;;9.15;1.85;;;;;;;;;;5016039;28;20052;-76
2022/11/27 07:04:39;;;;;;;8.50;1.55;;;;;;;;;;5014557;28;20018;-76
2022/11/27 07:07:04;;;;;;;5.97;1.40;;;;;;;;;;5014437;28;20515;-76
2022/11/27 07:09:29;;;;;;;3.72;1.60;;;;;;;;;;5014375;28;20366;-76
2022/11/27 07:11:55;;;;;;;4.38;1.83;;;;;;;;;;5014462;28;20041;-76
2022/11/27 07:14:20;;;;;;;5.65;1.52;;;;;;;;;;5014297;28;20037;-76
2022/11/27 07:16:45;;;;;;;11.70;2.20;;;;;;;;;;5014839;28;20070;-77
2022/11/27 07:19:11;;;;;;;10.57;2.30;;;;;;;;;;5015233;28;20022;-80
2022/11/27 07:21:37;;;;;;;18.20;2.35;;;;;;;;;;5015858;28;20041;-80
2022/11/27 07:24:02;;;;;;;7.82;2.08;;;;;;;;;;5014511;28;20465;-79
2022/11/27 07:26:28;;;;;;;13.57;2.05;;;;;;;;;;4997879;28;20087;-79
2022/11/27 07:28:54;;;;;;;9.13;2.10;;;;;;;;;;5014101;28;20026;-79
2022/11/27 07:31:22;;;;;;;19.88;2.45;;;;;;;;;;5014276;28;20037;-79
2022/11/27 07:33:47;;;;;;;13.27;2.10;;;;;;;;;;5013663;28;20029;-79
2022/11/27 07:36:16;;;;;;;11.82;1.80;;;;;;;;;;5030888;28;20040;-80
2022/11/27 07:38:43;;;;;;;7.47;2.08;;;;;;;;;;5014283;28;20428;-79
2022/11/27 07:41:08;;;;;;;5.68;2.00;;;;;;;;;;5015793;28;20053;-80
2022/11/27 07:43:34;;;;;;;4.97;2.00;;;;;;;;;;5015655;28;20369;-80
2022/11/27 07:46:04;;;;;;;6.82;2.05;;;;;;;;;;5015899;28;20080;-80
2022/11/27 07:48:30;;;;;;;10.88;2.17;;;;;;;;;;5015705;28;20108;-81
2022/11/27 07:50:55;;;;;;;8.25;2.35;;;;;;;;;;5017239;28;20049;-81
2022/11/27 07:53:20;;;;;;;4.95;2.35;;;;;;;;;;5015735;28;20038;-80
2022/11/27 07:55:46;;;;;;;9.52;2.30;;;;;;;;;;5015431;28;20125;-81
2022/11/27 07:58:11;;;;;;;9.07;1.90;;;;;;;;;;5016001;28;20034;-79
2022/11/27 08:00:37;;;;;;;7.60;2.00;;;;;;;;;;5016017;28;20040;-80
2022/11/27 08:03:02;;;;;;;7.80;1.92;;;;;;;;;;5014417;28;20041;-81
2022/11/27 08:05:28;;;;;;;5.70;2.30;;;;;;;;;;5013136;28;20037;-80
2022/11/27 08:07:53;;;;;;;6.38;1.98;;;;;;;;;;5013380;28;20064;-81
2022/11/27 08:10:19;;;;;;;6.20;2.22;;;;;;;;;;5015352;28;20065;-81
2022/11/27 08:12:44;;;;;;;7.50;2.30;;;;;;;;;;5015667;28;20109;-80
2022/11/27 08:15:10;;;;;;;7.18;2.20;;;;;;;;;;5030311;28;20172;-79
2022/11/27 08:17:36;;;;;;;16.02;2.63;;;;;;;;;;4997903;28;20531;-80
2022/11/27 08:20:01;;;;;;;10.88;2.00;;;;;;;;;;5014977;28;20026;-79
2022/11/27 08:22:27;;;;;;;8.82;2.33;;;;;;;;;;5011790;28;20033;-79
2022/11/27 08:24:52;;;;;;;13.70;2.28;;;;;;;;;;5014667;28;20527;-79
2022/11/27 08:27:17;;;;;;;16.17;2.38;;;;;;;;;;5013607;28;20112;-79
2022/11/27 08:29:43;;;;;;;22.15;2.38;;;;;;;;;;5029426;28;20041;-79
2022/11/27 08:32:08;;;;;;;8.23;2.90;;;;;;;;;;5014310;28;20037;-79
2022/11/27 08:34:34;;;;;;;21.42;2.78;;;;;;;;;;5014108;28;20041;-80
2022/11/27 08:36:59;;;;;;;10.23;3.25;;;;;;;;;;5030193;28;20121;-79
2022/11/27 08:39:25;;;;;;;13.60;2.78;;;;;;;;;;5015321;28;20057;-81
2022/11/27 08:41:51;;;;;;;8.32;3.05;;;;;;;;;;5013788;28;20040;-82
2022/11/27 08:44:17;;;;;;;10.18;3.58;;;;;;;;;;5015623;28;20037;-80
2022/11/27 08:46:43;;;;;;;10.95;3.00;;;;;;;;;;5030394;28;20386;-80
2022/11/27 08:49:08;;;;;;;10.40;3.42;;;;;;;;;;5014949;28;20034;-80
2022/11/27 08:51:33;;;;;;;13.52;3.00;;;;;;;;;;4997749;28;20037;-80
2022/11/27 08:53:59;;;;;;;7.28;2.75;;;;;;;;;;5014138;28;20029;-81
2022/11/27 08:56:25;;;;;;;7.93;3.10;;;;;;;;;;5013794;28;20497;-81
2022/11/27 08:58:51;;;;;;;12.43;3.05;;;;;;;;;;5014321;28;20037;-80
2022/11/27 09:01:20;;;;;;;13.85;2.97;;;;;;;;;;5014242;28;20037;-80
2022/11/27 09:03:46;;;;;;;14.00;3.05;;;;;;;;;;5013159;28;20026;-78
2022/11/27 09:06:17;;;;;;;9.85;2.72;;;;;;;;;;5013961;28;20038;-80
2022/11/27 09:08:44;;;;;;;6.22;2.70;;;;;;;;;;5014205;28;20366;-82
2022/11/27 09:11:10;;;;;;;7.18;2.83;;;;;;;;;;5012936;28;20457;-81
2022/11/27 09:13:36;;;;;;;7.40;2.22;;;;;;;;;;5014241;28;20029;-81
2022/11/27 09:16:03;;;;;;;6.90;2.50;;;;;;;;;;5014461;28;20416;-80
2022/11/27 09:18:28;;;;;;;12.32;2.90;;;;;;;;;;5012930;28;20033;-81
2022/11/27 09:21:01;;;;;;;6.32;2.65;;;;;;;;;;5012882;28;20078;-82
2022/11/27 09:23:28;;;;;;;8.70;2.70;;;;;;;;;;5013020;28;20033;-82
2022/11/27 09:25:53;;;;;;;6.65;2.95;;;;;;;;;;5012877;28;20034;-81
2022/11/27 09:28:19;;;;;;;7.30;3.05;;;;;;;;;;5013742;28;20099;-81
2022/11/27 09:30:44;;;;;;;5.63;2.42;;;;;;;;;;5014758;28;20361;-82
2022/11/27 09:33:10;;;;;;;7.53;2.47;;;;;;;;;;5011840;28;20029;-82
2022/11/27 09:35:38;;;;;;;10.23;3.60;;;;;;;;;;5011933;28;20059;-81
2022/11/27 09:38:04;;;;;;;7.70;2.88;;;;;;;;;;5012415;28;20077;-81
2022/11/27 09:40:30;;;;;;;6.50;2.60;;;;;;;;;;5013590;28;20465;-82
2022/11/27 09:43:03;;;;;;;4.95;2.40;;;;;;;;;;5013051;28;20497;-81
2022/11/27 09:45:29;;;;;;;6.25;2.58;;;;;;;;;;5012878;28;20077;-82
2022/11/27 09:48:01;;;;;;;5.38;2.30;;;;;;;;;;5013147;28;20620;-81
2022/11/27 09:50:34;;;;;;;8.18;3.10;;;;;;;;;;5013689;28;20092;-81
2022/11/27 09:53:15;;;;;;;11.10;3.65;;;;;;;;;;5015663;28;20032;-81
2022/11/27 09:55:47;;;;;;;8.80;3.38;;;;;;;;;;5013270;28;20093;-80
2022/11/27 09:58:31;;;;;;;16.63;4.00;;;;;;;;;;5032136;28;20033;-81
2022/11/27 10:00:57;;;;;;;10.73;3.28;;;;;;;;;;5023320;28;20041;-79
2022/11/27 10:03:24;;;;;;;10.07;3.45;;;;;;;;;;5015363;28;20084;-79
2022/11/27 10:06:02;;;;;;;15.30;3.58;;;;;;;;;;5013731;28;20070;-79
2022/11/27 10:08:50;;;;;;;10.93;3.65;;;;;;;;;;5013948;28;20033;-79
2022/11/27 10:11:29;;;;;;;9.90;3.38;;;;;;;;;;4995818;28;20465;-79
2022/11/27 10:14:05;;;;;;;11.40;3.25;;;;;;;;;;5014026;28;20030;-79
2022/11/27 10:16:50;;;;;;;7.25;3.17;;;;;;;;;;5012713;28;20025;-79
2022/11/27 10:19:31;;;;;;;11.10;3.55;;;;;;;;;;5012591;28;20028;-79
2022/11/27 10:22:19;;;;;;;8.13;3.00;;;;;;;;;;5012743;28;20037;-79
2022/11/27 10:25:19;;;;;;;9.98;4.13;;;;;;;;;;5011472;28;20025;-80
2022/11/27 10:28:03;;;;;;;8.75;3.20;;;;;;;;;;5011353;28;20038;-80
2022/11/27 10:30:31;;;;;;;7.95;3.13;;;;;;;;;;5028217;28;20032;-81
2022/11/27 10:32:59;;;;;;;7.38;3.20;;;;;;;;;;5015685;28;20057;-82
2022/11/27 10:35:27;;;;;;;5.05;2.50;;;;;;;;;;5017369;28;20034;-82
2022/11/27 10:37:59;;;;;;;5.55;3.25;;;;;;;;;;5015756;28;20080;-82
2022/11/27 10:40:33;;;;;;;8.73;2.83;;;;;;;;;;5015491;28;20400;-81
2022/11/27 10:42:58;;;;;;;4.20;2.25;;;;;;;;;;5015487;28;20075;-80
2022/11/27 10:45:28;;;;;;;11.77;2.80;;;;;;;;;;5016985;28;20049;-80
2022/11/27 10:47:53;;;;;;;8.00;3.47;;;;;;;;;;5016717;28;20064;-81
2022/11/27 10:50:19;;;;;;;6.22;2.45;;;;;;;;;;5015176;28;20050;-80
2022/11/27 10:53:04;;;;;;;10.52;2.80;;;;;;;;;;5015806;28;20054;-82
2022/11/27 10:56:04;;;;;;;4.72;2.25;;;;;;;;;;4998739;28;20122;-81
2022/11/27 10:58:40;;;;;;;7.22;2.72;;;;;;;;;;5015285;28;20033;-81
2022/11/27 11:01:14;;;;;;;4.70;2.60;;;;;;;;;;5016460;28;20037;-81
2022/11/27 11:03:40;;;;;;;7.97;3.28;;;;;;;;;;5017201;28;20026;-80
2022/11/27 11:06:11;;;;;;;4.57;2.38;;;;;;;;;;5016043;28;20088;-80
2022/11/27 11:08:37;;;;;;;5.07;2.85;;;;;;;;;;5016396;28;20124;-81
2022/11/27 11:11:05;;;;;;;3.90;2.50;;;;;;;;;;5015791;28;20108;-81
2022/11/27 11:13:51;;;;;;;5.00;2.55;;;;;;;;;;5015387;28;20033;-81
2022/11/27 11:16:22;;;;;;;4.57;2.45;;;;;;;;;;5014409;28;20046;-79
2022/11/27 11:18:52;;;;;;;5.60;2.53;;;;;;;;;;5015919;28;20105;-80
2022/11/27 11:21:32;;;;;;;6.35;2.55;;;;;;;;;;5015109;28;20022;-80
2022/11/27 11:24:01;;;;;;;4.97;2.58;;;;;;;;;;5031265;28;20042;-80
2022/11/27 11:26:30;;;;;;;6.07;2.42;;;;;;;;;;5028119;28;20037;-80
2022/11/27 11:28:59;;;;;;;4.90;2.53;;;;;;;;;;5016937;28;20099;-81
2022/11/27 11:31:36;;;;;;;4.70;2.58;;;;;;;;;;5013945;28;20140;-81
2022/11/27 11:34:06;;;;;;;4.03;2.20;;;;;;;;;;5013819;28;20099;-81
2022/11/27 11:36:32;;;;;;;4.95;2.75;;;;;;;;;;5014211;28;20114;-79
2022/11/27 11:38:57;;;;;;;3.30;2.22;;;;;;;;;;5013801;28;20437;-81
2022/11/27 11:41:23;;;;;;;7.20;2.90;;;;;;;;;;4997399;28;20392;-81
2022/11/27 11:43:55;;;;;;;8.65;2.88;;;;;;;;;;5014657;28;20053;-82
2022/11/27 11:46:24;;;;;;;9.90;3.05;;;;;;;;;;5013280;28;20050;-82
2022/11/27 11:49:01;;;;;;;8.32;3.40;;;;;;;;;;5013642;28;20037;-82
2022/11/27 11:51:38;;;;;;;6.93;2.75;;;;;;;;;;5013839;28;20222;-81
2022/11/27 11:54:29;;;;;;;14.15;3.05;;;;;;;;;;5013326;28;20044;-82
2022/11/27 11:56:59;;;;;;;9.70;3.25;;;;;;;;;;5012902;28;20396;-82
2022/11/27 11:59:58;;;;;;;9.05;3.00;;;;;;;;;;5012921;28;20464;-82
2022/11/27 12:02:48;;;;;;;55.50;3.55;;;;;;;;;;5013087;28;20495;-82
2022/11/27 12:05:21;;;;;;;13.18;3.35;;;;;;;;;;5013042;28;20512;-82
2022/11/27 12:07:53;;;;;;;15.95;3.55;;;;;;;;;;5014619;28;20040;-82
2022/11/27 12:10:49;;;;;;;9.38;3.10;;;;;;;;;;5013522;28;20022;-82
2022/11/27 12:13:30;;;;;;;9.07;3.10;;;;;;;;;;5002379;28;20496;-82
2022/11/27 12:16:11;;;;;;;4.88;2.92;;;;;;;;;;5013262;28;20392;-81
2022/11/27 12:18:39;;;;;;;13.45;3.25;;;;;;;;;;5013525;28;20057;-81
2022/11/27 12:21:11;;;;;;;6.63;3.33;;;;;;;;;;5014757;28;20480;-80
2022/11/27 12:23:48;;;;;;;12.27;3.33;;;;;;;;;;5014164;28;20034;-81
2022/11/27 12:26:35;;;;;;;10.50;3.95;;;;;;;;;;5013857;28;20108;-82
2022/11/27 12:29:32;;;;;;;15.43;3.30;;;;;;;;;;4996146;28;20022;-81
2022/11/27 12:32:33;;;;;;;11.35;3.50;;;;;;;;;;5013521;28;20026;-81
2022/11/27 12:35:16;;;;;;;10.07;3.80;;;;;;;;;;5012630;28;20516;-81
2022/11/27 12:37:59;;;;;;;10.70;3.67;;;;;;;;;;4996725;28;20029;-81
2022/11/27 12:40:49;;;;;;;8.52;3.10;;;;;;;;;;5013701;28;20027;-81
2022/11/27 12:43:14;;;;;;;16.05;3.53;;;;;;;;;;5012307;28;20048;-81
2022/11/27 12:45:44;;;;;;;13.80;3.92;;;;;;;;;;5012214;28;20046;-81
2022/11/27 12:48:18;;;;;;;11.93;3.85;;;;;;;;;;5012785;28;20042;-81
2022/11/27 12:50:48;;;;;;;8.13;3.17;;;;;;;;;;5012338;28;20389;-81
2022/11/27 12:53:17;;;;;;;8.95;3.13;;;;;;;;;;5011937;28;20107;-81
2022/11/27 12:55:47;;;;;;;9.57;2.80;;;;;;;;;;5013575;28;20515;-83
2022/11/27 12:58:22;;;;;;;7.80;3.00;;;;;;;;;;5013657;28;20366;-79
2022/11/27 13:00:49;;;;;;;8.68;3.67;;;;;;;;;;5013620;28;20022;-83
2022/11/27 13:03:24;;;;;;;12.10;3.40;;;;;;;;;;5012468;28;20026;-81
2022/11/27 13:05:59;;;;;;;8.10;3.22;;;;;;;;;;5013620;28;20476;-83
2022/11/27 13:08:29;;;;;;;15.15;3.53;;;;;;;;;;5012014;28;20045;-81
2022/11/27 13:11:03;;;;;;;8.75;3.10;;;;;;;;;;5011685;28;20041;-82
2022/11/27 13:13:51;;;;;;;8.10;3.15;;;;;;;;;;5011277;28;20444;-81
2022/11/27 13:16:28;;;;;;;6.63;3.30;;;;;;;;;;5011018;28;20136;-80
2022/11/27 13:19:05;;;;;;;8.93;3.30;;;;;;;;;;5027776;28;20029;-81
2022/11/27 13:21:32;;;;;;;6.88;2.97;;;;;;;;;;4998735;28;20062;-80
2022/11/27 13:24:02;;;;;;;6.10;2.80;;;;;;;;;;4991762;28;20050;-84
2022/11/27 13:26:31;;;;;;;7.82;2.92;;;;;;;;;;4993685;28;20037;-83
2022/11/27 13:29:00;;;;;;;17.05;3.05;;;;;;;;;;4991902;28;20030;-82
2022/11/27 13:31:31;;;;;;;10.70;3.45;;;;;;;;;;4994042;28;20090;-82
2022/11/27 13:34:02;;;;;;;9.23;3.20;;;;;;;;;;4993482;28;20034;-81
2022/11/27 13:36:31;;;;;;;6.45;3.63;;;;;;;;;;4993641;28;20496;-82
2022/11/27 13:38:59;;;;;;;11.90;3.50;;;;;;;;;;4993585;28;20378;-83
2022/11/27 13:41:33;;;;;;;7.15;2.58;;;;;;;;;;5008446;28;20025;-81
2022/11/27 13:43:59;;;;;;;5.78;2.80;;;;;;;;;;4992102;28;20030;-82
2022/11/27 13:46:30;;;;;;;8.15;3.30;;;;;;;;;;4993039;28;20589;-81
2022/11/27 13:49:02;;;;;;;4.95;2.85;;;;;;;;;;4991938;28;20035;-81
2022/11/27 13:51:36;;;;;;;7.78;3.20;;;;;;;;;;4991732;28;20018;-81
2022/11/27 13:54:09;;;;;;;5.90;2.80;;;;;;;;;;4991693;28;20422;-81
2022/11/27 13:56:35;;;;;;;8.35;3.20;;;;;;;;;;4992935;28;20030;-82
2022/11/27 13:59:15;;;;;;;9.48;3.47;;;;;;;;;;4992266;28;20110;-82
2022/11/27 14:02:03;;;;;;;11.45;4.22;;;;;;;;;;4991801;28;20193;-80
2022/11/27 14:04:30;;;;;;;7.95;2.85;;;;;;;;;;4993275;28;20030;-80
2022/11/27 14:07:02;;;;;;;7.78;3.00;;;;;;;;;;4994994;28;20034;-81
2022/11/27 14:09:34;;;;;;;8.20;3.15;;;;;;;;;;4996187;28;20026;-81
2022/11/27 14:12:00;;;;;;;9.13;2.60;;;;;;;;;;4996411;28;20033;-83
2022/11/27 14:14:27;;;;;;;6.13;2.53;;;;;;;;;;4994427;28;20096;-83
2022/11/27 14:17:03;;;;;;;10.93;2.60;;;;;;;;;;5010757;28;20038;-83
2022/11/27 14:19:39;;;;;;;8.55;2.97;;;;;;;;;;4994613;28;20109;-82
2022/11/27 14:22:15;;;;;;;11.20;3.25;;;;;;;;;;4994529;28;20030;-82
2022/11/27 14:24:43;;;;;;;8.82;3.13;;;;;;;;;;5010896;28;20497;-82
2022/11/27 14:27:20;;;;;;;19.38;3.40;;;;;;;;;;4995618;28;20022;-82
2022/11/27 14:29:46;;;;;;;4.70;2.67;;;;;;;;;;4994279;28;20031;-82
2022/11/27 14:32:14;;;;;;;4.63;2.63;;;;;;;;;;4994369;28;20117;-82
2022/11/27 14:34:40;;;;;;;5.18;2.85;;;;;;;;;;4994388;28;20414;-82
2022/11/27 14:37:05;;;;;;;10.95;2.90;;;;;;;;;;4994415;28;20068;-82
2022/11/27 14:39:35;;;;;;;10.30;2.95;;;;;;;;;;4977909;28;20118;-81
2022/11/27 14:42:02;;;;;;;5.57;3.00;;;;;;;;;;4977927;28;20037;-80
2022/11/27 14:44:29;;;;;;;5.97;3.15;;;;;;;;;;4993876;28;20027;-81
2022/11/27 14:46:56;;;;;;;5.45;2.72;;;;;;;;;;4994003;28;20038;-80
2022/11/27 14:49:24;;;;;;;9.00;3.13;;;;;;;;;;4994043;28;20022;-81
2022/11/27 14:51:50;;;;;;;8.80;3.67;;;;;;;;;;4993903;28;20124;-81
2022/11/27 14:54:28;;;;;;;4.50;3.00;;;;;;;;;;4977928;28;20042;-81